Terminal Aerodrome Forecast
Issued by NWS

Home | Current Version | Previous Version | Graphics & Text | Print | Product List | Glossary On
Versions: 1 2 3 4 5 6 7 8 9 10 11 12 13 14 15 16 17 18 19 20
000
FTUS43 KTOP 050500
TAFMHK
TAF
KMHK 050520Z 0506/0606 VRB05KT P6SM -TSRA BKN050CB
     FM050900 17006KT P6SM SCT050
     FM051600 17014G22KT P6SM SCT050
     FM060100 15008KT P6SM SCT050=

USA.gov is the U.S. government's official web portal to all federal, state and local government web resources and services.